createdAt,value
2023-05-15T00:00:41.233Z,21.64
2023-05-15T00:01:41.081Z,21.64
2023-05-15T00:02:41.214Z,21.64
2023-05-15T00:03:41.330Z,21.64
2023-05-15T00:04:41.273Z,21.64
2023-05-15T00:05:41.233Z,21.64
2023-05-15T00:06:41.276Z,21.64
2023-05-15T00:07:41.313Z,21.63
2023-05-15T00:08:41.352Z,21.64
2023-05-15T00:09:41.408Z,21.64
2023-05-15T00:10:50.459Z,21.64
2023-05-15T00:11:42.425Z,21.63
2023-05-15T00:12:41.409Z,21.63
2023-05-15T00:13:41.423Z,21.63
2023-05-15T00:14:41.392Z,21.63
2023-05-15T00:15:41.411Z,21.63
2023-05-15T00:16:41.462Z,21.64
2023-05-15T00:17:41.469Z,21.65
2023-05-15T00:18:41.424Z,21.64
2023-05-15T00:19:41.393Z,21.63
2023-05-15T00:20:41.359Z,21.63
2023-05-15T00:21:41.365Z,21.63
2023-05-15T00:22:41.343Z,21.64
2023-05-15T00:23:41.340Z,21.63
2023-05-15T00:24:41.349Z,21.63
2023-05-15T00:25:41.374Z,21.63
2023-05-15T00:26:41.379Z,21.62
2023-05-15T00:27:41.436Z,21.63
2023-05-15T00:28:41.466Z,21.62
2023-05-15T00:29:41.503Z,21.63
2023-05-15T00:30:41.623Z,21.63
2023-05-15T00:31:41.615Z,21.63
2023-05-15T00:32:41.638Z,21.62
2023-05-15T00:33:41.612Z,21.62
2023-05-15T00:34:41.632Z,21.62
2023-05-15T00:35:41.669Z,21.62
2023-05-15T00:36:41.697Z,21.63
2023-05-15T00:37:41.725Z,21.62
2023-05-15T00:38:41.745Z,21.62
2023-05-15T00:39:41.781Z,21.62
2023-05-15T00:40:41.812Z,21.62
2023-05-15T00:41:41.859Z,21.62
2023-05-15T00:42:41.814Z,21.62
2023-05-15T00:43:41.831Z,21.62
2023-05-15T00:44:41.837Z,21.62
2023-05-15T00:45:41.869Z,21.62
2023-05-15T00:46:41.955Z,21.62
2023-05-15T00:47:41.950Z,21.62
2023-05-15T00:48:41.927Z,21.62
2023-05-15T00:49:41.963Z,21.62
2023-05-15T00:50:41.997Z,21.62
2023-05-15T00:51:42.047Z,21.62
2023-05-15T00:52:42.093Z,21.62
2023-05-15T00:53:42.143Z,21.61
2023-05-15T00:54:42.173Z,21.62
2023-05-15T00:55:42.201Z,21.62
2023-05-15T00:56:42.249Z,21.62
2023-05-15T00:57:42.294Z,21.62
2023-05-15T00:58:42.336Z,21.62
2023-05-15T00:59:42.396Z,21.61
2023-05-15T01:00:42.446Z,21.61
2023-05-15T01:01:42.471Z,21.61
2023-05-15T01:02:42.597Z,21.62
2023-05-15T01:03:42.566Z,21.61
2023-05-15T01:04:42.594Z,21.61
2023-05-15T01:05:42.691Z,21.61
2023-05-15T01:06:50.211Z,21.61
2023-05-15T01:07:42.668Z,21.60
2023-05-15T01:08:42.644Z,21.61
2023-05-15T01:09:42.638Z,21.60
2023-05-15T01:10:42.785Z,21.60
2023-05-15T01:11:42.641Z,21.61
2023-05-15T01:12:42.612Z,21.61
2023-05-15T01:13:42.610Z,21.61
2023-05-15T01:14:42.600Z,21.61
2023-05-15T01:15:42.773Z,21.60
2023-05-15T01:16:42.589Z,21.60
2023-05-15T01:17:42.626Z,21.60
2023-05-15T01:18:42.605Z,21.59
2023-05-15T01:19:42.753Z,21.60
2023-05-15T01:20:42.576Z,21.60
2023-05-15T01:21:42.539Z,21.60
2023-05-15T01:22:42.545Z,21.60
2023-05-15T01:23:42.529Z,21.60
2023-05-15T01:24:42.533Z,21.60
2023-05-15T01:25:42.580Z,21.60
2023-05-15T01:26:42.621Z,21.60
2023-05-15T01:27:42.636Z,21.60
2023-05-15T01:28:42.680Z,21.59
2023-05-15T01:29:42.716Z,21.60
2023-05-15T01:30:42.755Z,21.60
2023-05-15T01:31:42.822Z,21.60
2023-05-15T01:32:42.859Z,21.60
2023-05-15T01:33:42.863Z,21.60
2023-05-15T01:34:42.921Z,21.59
2023-05-15T01:35:42.953Z,21.59
2023-05-15T01:36:42.987Z,21.60
2023-05-15T01:37:43.032Z,21.60
2023-05-15T01:38:43.072Z,21.59
2023-05-15T01:39:43.105Z,21.59
2023-05-15T01:40:43.173Z,21.59
2023-05-15T01:41:43.189Z,21.59
2023-05-15T01:42:43.229Z,21.60
2023-05-15T01:43:43.277Z,21.59
2023-05-15T01:44:43.300Z,21.59
2023-05-15T01:45:43.436Z,21.59
2023-05-15T01:46:43.477Z,21.60
2023-05-15T01:47:43.453Z,21.59
2023-05-15T01:48:43.451Z,21.59
2023-05-15T01:49:43.488Z,21.59
2023-05-15T01:50:43.558Z,21.59
2023-05-15T01:51:43.560Z,21.59
2023-05-15T01:52:43.588Z,21.59
2023-05-15T01:53:43.624Z,21.58
2023-05-15T01:54:43.666Z,21.58
2023-05-15T01:55:43.726Z,21.59
2023-05-15T01:56:43.736Z,21.59
2023-05-15T01:57:43.785Z,21.59
2023-05-15T01:58:43.813Z,21.59
2023-05-15T01:59:43.859Z,21.58
2023-05-15T02:00:43.937Z,21.58
2023-05-15T02:01:44.008Z,21.58
2023-05-15T02:02:44.050Z,21.59
2023-05-15T02:03:44.099Z,21.58
2023-05-15T02:04:44.063Z,21.58
2023-05-15T02:05:44.159Z,21.58
2023-05-15T02:06:44.154Z,21.59
2023-05-15T02:07:44.201Z,21.59
2023-05-15T02:08:44.252Z,21.59
2023-05-15T02:09:44.281Z,21.58
2023-05-15T02:10:44.345Z,21.58
2023-05-15T02:11:44.366Z,21.58
2023-05-15T02:12:44.394Z,21.57
2023-05-15T02:13:44.445Z,21.58
2023-05-15T02:14:44.469Z,21.57
2023-05-15T02:15:44.511Z,21.58
2023-05-15T02:16:44.619Z,21.58
2023-05-15T02:17:44.620Z,21.57
2023-05-15T02:18:44.664Z,21.57
2023-05-15T02:19:44.659Z,21.58
2023-05-15T02:20:44.705Z,21.57
2023-05-15T02:21:44.740Z,21.57
2023-05-15T02:22:44.776Z,21.57
2023-05-15T02:23:44.812Z,21.57
2023-05-15T02:24:44.910Z,21.57
2023-05-15T02:25:44.892Z,21.57
2023-05-15T02:26:44.961Z,21.57
2023-05-15T02:27:44.983Z,21.57
2023-05-15T02:28:45.019Z,21.58
2023-05-15T02:29:45.049Z,21.57
2023-05-15T02:30:45.094Z,21.57
2023-05-15T02:31:45.189Z,21.57
2023-05-15T02:32:45.181Z,21.58
2023-05-15T02:33:45.229Z,21.57
2023-05-15T02:34:45.254Z,21.57
2023-05-15T02:35:45.304Z,21.57
2023-05-15T02:36:45.332Z,21.56
2023-05-15T02:37:45.382Z,21.56
2023-05-15T02:38:45.388Z,21.56
2023-05-15T02:39:45.413Z,21.57
2023-05-15T02:40:45.447Z,21.56
2023-05-15T02:41:45.477Z,21.56
2023-05-15T02:42:45.513Z,21.56
2023-05-15T02:43:45.539Z,21.57
2023-05-15T02:44:45.550Z,21.57
2023-05-15T02:45:45.616Z,21.57
2023-05-15T02:46:45.627Z,21.56
2023-05-15T02:47:45.704Z,21.56
2023-05-15T02:48:45.701Z,21.56
2023-05-15T02:49:45.730Z,21.56
2023-05-15T02:50:45.788Z,21.56
2023-05-15T02:51:45.809Z,21.56
2023-05-15T02:52:45.834Z,21.57
2023-05-15T02:53:45.913Z,21.57
2023-05-15T02:54:45.922Z,21.56
2023-05-15T02:55:45.982Z,21.57
2023-05-15T02:56:46.008Z,21.56
2023-05-15T02:57:46.044Z,21.56
2023-05-15T02:58:46.092Z,21.56
2023-05-15T02:59:46.105Z,21.55
2023-05-15T03:00:46.129Z,21.55
2023-05-15T03:01:46.209Z,21.55
2023-05-15T03:02:46.220Z,21.55
2023-05-15T03:03:46.301Z,21.55
2023-05-15T03:04:46.730Z,21.55
2023-05-15T03:05:46.320Z,21.56
2023-05-15T03:06:46.396Z,21.55
2023-05-15T03:07:46.408Z,21.55
2023-05-15T03:08:46.434Z,21.55
2023-05-15T03:09:46.462Z,21.55
2023-05-15T03:10:46.513Z,21.55
2023-05-15T03:11:46.545Z,21.55
2023-05-15T03:12:46.603Z,21.55
2023-05-15T03:13:46.603Z,21.55
2023-05-15T03:14:46.605Z,21.55
2023-05-15T03:15:46.629Z,21.54
2023-05-15T03:16:46.672Z,21.55
2023-05-15T03:17:46.714Z,21.55
2023-05-15T03:18:46.693Z,21.55
2023-05-15T03:19:46.669Z,21.54
2023-05-15T03:20:46.682Z,21.54
2023-05-15T03:21:46.710Z,21.54
2023-05-15T03:22:46.739Z,21.53
2023-05-15T03:23:46.764Z,21.53
2023-05-15T03:24:46.794Z,21.54
2023-05-15T03:25:46.802Z,21.54
2023-05-15T03:26:46.835Z,21.54
2023-05-15T03:27:46.840Z,21.54
2023-05-15T03:28:46.870Z,21.54
2023-05-15T03:29:46.888Z,21.54
2023-05-15T03:30:46.931Z,21.54
2023-05-15T03:31:47.004Z,21.54
2023-05-15T03:32:47.026Z,21.54
2023-05-15T03:33:47.023Z,21.54
2023-05-15T03:34:47.083Z,21.54
2023-05-15T03:35:47.113Z,21.54
2023-05-15T03:36:47.148Z,21.54
2023-05-15T03:37:47.196Z,21.53
2023-05-15T03:38:47.228Z,21.54
2023-05-15T03:39:47.247Z,21.54
2023-05-15T03:40:48.931Z,21.54
2023-05-15T03:41:47.283Z,21.53
2023-05-15T03:42:47.276Z,21.54
2023-05-15T03:43:47.249Z,21.53
2023-05-15T03:44:47.251Z,21.54
2023-05-15T03:45:47.241Z,21.53
2023-05-15T03:46:47.241Z,21.53
2023-05-15T03:47:47.249Z,21.53
2023-05-15T03:48:47.220Z,21.53
2023-05-15T03:49:47.226Z,21.53
2023-05-15T03:50:47.209Z,21.53
2023-05-15T03:51:47.192Z,21.53
2023-05-15T03:52:47.190Z,21.53
2023-05-15T03:53:47.161Z,21.53
2023-05-15T03:54:47.161Z,21.53
2023-05-15T03:55:47.194Z,21.53
2023-05-15T03:56:47.153Z,21.53
2023-05-15T03:57:47.143Z,21.54
2023-05-15T03:58:47.151Z,21.53
2023-05-15T03:59:47.125Z,21.53
2023-05-15T04:00:47.123Z,21.53
2023-05-15T04:02:02.783Z,21.53
2023-05-15T04:02:48.147Z,21.52
2023-05-15T04:03:47.106Z,21.53
2023-05-15T04:04:47.163Z,21.52
2023-05-15T04:05:47.088Z,21.52
2023-05-15T04:06:47.081Z,21.52
2023-05-15T04:07:47.069Z,21.53
2023-05-15T04:08:47.052Z,21.53
2023-05-15T04:09:47.048Z,21.52
2023-05-15T04:10:47.039Z,21.52
2023-05-15T04:11:47.052Z,21.52
2023-05-15T04:12:47.022Z,21.52
2023-05-15T04:13:47.046Z,21.53
2023-05-15T04:14:47.092Z,21.53
2023-05-15T04:15:47.127Z,21.53
2023-05-15T04:16:47.224Z,21.52
2023-05-15T04:17:47.220Z,21.52
2023-05-15T04:18:47.313Z,21.52
2023-05-15T04:19:47.291Z,21.52
2023-05-15T04:20:47.343Z,21.53
2023-05-15T04:21:47.381Z,21.53
2023-05-15T04:22:47.407Z,21.53
2023-05-15T04:23:47.449Z,21.53
2023-05-15T04:24:47.485Z,21.53
2023-05-15T04:25:47.525Z,21.53
2023-05-15T04:26:47.647Z,21.52
2023-05-15T04:27:47.631Z,21.53
2023-05-15T04:29:00.146Z,21.53
2023-05-15T04:29:48.650Z,21.53
2023-05-15T04:30:47.651Z,21.53
2023-05-15T04:31:47.694Z,21.53
2023-05-15T04:32:47.720Z,21.53
2023-05-15T04:33:49.120Z,21.52
2023-05-15T04:34:47.627Z,21.53
2023-05-15T04:35:47.604Z,21.53
2023-05-15T04:36:47.605Z,21.53
2023-05-15T04:37:47.602Z,21.53
2023-05-15T04:38:47.582Z,21.53
2023-05-15T04:39:47.587Z,21.53
2023-05-15T04:40:47.604Z,21.52
2023-05-15T04:41:47.653Z,21.53
2023-05-15T04:42:47.675Z,21.53
2023-05-15T04:43:47.716Z,21.53
2023-05-15T04:44:47.800Z,21.52
2023-05-15T04:45:47.837Z,21.53
2023-05-15T04:46:47.857Z,21.53
2023-05-15T04:47:47.937Z,21.53
2023-05-15T04:48:47.897Z,21.53
2023-05-15T04:49:47.954Z,21.53
2023-05-15T04:50:47.970Z,21.52
2023-05-15T04:51:48.026Z,21.53
2023-05-15T04:52:48.063Z,21.53
2023-05-15T04:53:48.075Z,21.53
2023-05-15T04:54:48.134Z,21.53
2023-05-15T04:55:48.165Z,21.53
2023-05-15T04:56:48.200Z,21.52
2023-05-15T04:57:48.213Z,21.52
2023-05-15T04:58:48.238Z,21.54
2023-05-15T04:59:48.283Z,21.52
2023-05-15T05:00:48.279Z,21.52
2023-05-15T05:01:48.358Z,21.53
2023-05-15T05:02:48.406Z,21.53
2023-05-15T05:03:48.400Z,21.53
2023-05-15T05:04:48.393Z,21.52
2023-05-15T05:05:48.426Z,21.52
2023-05-15T05:06:48.481Z,21.52
2023-05-15T05:07:48.474Z,21.52
2023-05-15T05:08:48.495Z,21.52
2023-05-15T05:09:48.525Z,21.52
2023-05-15T05:10:48.535Z,21.52
2023-05-15T05:11:48.563Z,21.52
2023-05-15T05:12:48.580Z,21.52
2023-05-15T05:13:48.648Z,21.52
2023-05-15T05:14:48.690Z,21.52
2023-05-15T05:15:48.778Z,21.51
2023-05-15T05:16:48.777Z,21.51
2023-05-15T05:17:48.849Z,21.51
2023-05-15T05:18:48.804Z,21.51
2023-05-15T05:19:48.817Z,21.51
2023-05-15T05:20:48.852Z,21.52
2023-05-15T05:21:48.968Z,21.50
2023-05-15T05:22:48.929Z,21.51
2023-05-15T05:23:48.971Z,21.50
2023-05-15T05:24:49.018Z,21.51
2023-05-15T05:25:49.073Z,21.50
2023-05-15T05:26:49.404Z,21.50
2023-05-15T05:27:49.147Z,21.51
2023-05-15T05:28:49.189Z,21.51
2023-05-15T05:29:49.264Z,21.52
2023-05-15T05:30:49.315Z,21.50
2023-05-15T05:31:49.409Z,21.51
2023-05-15T05:32:49.413Z,21.52
2023-05-15T05:33:49.385Z,21.54
2023-05-15T05:34:49.516Z,21.58
2023-05-15T05:35:49.473Z,21.61
2023-05-15T05:36:49.889Z,21.64
2023-05-15T05:37:49.505Z,21.69
2023-05-15T05:38:49.503Z,21.76
2023-05-15T05:39:49.531Z,21.80
2023-05-15T05:40:49.571Z,21.84
2023-05-15T05:41:49.572Z,21.90
2023-05-15T05:42:49.567Z,21.94
2023-05-15T05:43:49.571Z,21.99
2023-05-15T05:44:49.578Z,22.05
2023-05-15T05:45:49.628Z,22.08
2023-05-15T05:46:49.632Z,22.13
2023-05-15T05:47:49.680Z,22.17
2023-05-15T05:48:49.623Z,22.20
2023-05-15T05:49:49.629Z,22.22
2023-05-15T05:50:49.707Z,22.26
2023-05-15T05:51:49.721Z,22.28
2023-05-15T05:52:49.778Z,22.30
2023-05-15T05:53:49.867Z,22.33
2023-05-15T05:54:49.891Z,22.35
2023-05-15T05:55:49.920Z,22.38
2023-05-15T05:56:49.936Z,22.41
2023-05-15T05:57:49.934Z,22.44
2023-05-15T05:58:49.993Z,22.46
2023-05-15T05:59:50.048Z,22.49
2023-05-15T06:00:50.111Z,22.52
2023-05-15T06:01:50.299Z,22.55
2023-05-15T06:02:50.355Z,22.56
2023-05-15T06:03:50.380Z,22.58
2023-05-15T06:04:50.359Z,22.61
2023-05-15T06:05:50.427Z,22.63
2023-05-15T06:06:50.495Z,22.66
2023-05-15T06:07:50.541Z,22.68
2023-05-15T06:08:50.601Z,22.71
2023-05-15T06:09:50.640Z,22.74
2023-05-15T06:10:50.698Z,22.75
2023-05-15T06:11:50.878Z,22.77
2023-05-15T06:12:50.819Z,22.79
2023-05-15T06:13:50.844Z,22.81
2023-05-15T06:14:50.935Z,22.82
2023-05-15T06:15:50.976Z,22.85
2023-05-15T06:16:51.058Z,22.86
2023-05-15T06:17:51.400Z,22.87
2023-05-15T06:18:51.213Z,22.88
2023-05-15T06:19:51.194Z,22.90
2023-05-15T06:20:51.238Z,22.92
2023-05-15T06:21:51.305Z,22.94
2023-05-15T06:22:51.377Z,22.96
2023-05-15T06:23:51.400Z,22.98
2023-05-15T06:24:51.449Z,23.00
2023-05-15T06:25:51.649Z,23.02
2023-05-15T06:26:52.429Z,23.03
2023-05-15T06:27:51.612Z,23.05
2023-05-15T06:28:51.663Z,23.07
2023-05-15T06:29:51.634Z,23.07
2023-05-15T06:30:51.695Z,23.08
2023-05-15T06:31:51.745Z,23.10
2023-05-15T06:32:51.796Z,23.11
2023-05-15T06:33:51.845Z,23.13
2023-05-15T06:34:51.828Z,23.13
2023-05-15T06:35:51.856Z,23.14
2023-05-15T06:36:52.383Z,23.16
2023-05-15T06:37:51.966Z,23.16
2023-05-15T06:38:52.008Z,23.13
2023-05-15T06:39:52.060Z,23.12
2023-05-15T06:40:52.095Z,23.13
2023-05-15T06:41:52.133Z,23.15
2023-05-15T06:42:52.171Z,23.18
2023-05-15T06:43:52.213Z,23.21
2023-05-15T06:44:52.367Z,23.24
2023-05-15T06:45:52.327Z,23.26
2023-05-15T06:46:52.425Z,23.27
2023-05-15T06:47:52.412Z,23.28
2023-05-15T06:48:52.387Z,23.28
2023-05-15T06:49:52.394Z,23.28
2023-05-15T06:50:52.480Z,23.30
2023-05-15T06:51:52.493Z,23.32
2023-05-15T06:52:52.492Z,23.33
2023-05-15T06:53:52.504Z,23.36
2023-05-15T06:54:52.508Z,23.37
2023-05-15T06:55:52.510Z,23.39
2023-05-15T06:56:52.575Z,23.41
2023-05-15T06:57:52.533Z,23.44
2023-05-15T06:58:52.551Z,23.45
2023-05-15T06:59:52.575Z,23.47
2023-05-15T07:00:54.116Z,23.48
2023-05-15T07:01:52.622Z,23.49
2023-05-15T07:02:52.643Z,23.51
2023-05-15T07:03:52.569Z,23.53
2023-05-15T07:04:52.610Z,23.53
2023-05-15T07:05:52.641Z,23.54
2023-05-15T07:06:52.565Z,23.55
2023-05-15T07:07:52.537Z,23.56
2023-05-15T07:08:52.519Z,23.56
2023-05-15T07:09:52.510Z,23.57
2023-05-15T07:10:52.497Z,23.58
2023-05-15T07:11:52.497Z,23.58
2023-05-15T07:12:52.533Z,23.60
2023-05-15T07:13:52.638Z,23.63
2023-05-15T07:14:52.509Z,23.65
2023-05-15T07:15:52.477Z,23.67
2023-05-15T07:16:52.516Z,23.69
2023-05-15T07:17:52.523Z,23.71
2023-05-15T07:18:52.608Z,23.72
2023-05-15T07:19:52.452Z,23.74
2023-05-15T07:20:52.457Z,23.75
2023-05-15T07:21:52.425Z,23.77
2023-05-15T07:22:56.758Z,23.79
2023-05-15T07:23:52.400Z,23.79
2023-05-15T07:24:52.414Z,23.80
2023-05-15T07:25:52.404Z,23.81
2023-05-15T07:26:58.779Z,23.84
2023-05-15T07:27:53.400Z,23.83
2023-05-15T07:28:52.385Z,23.84
2023-05-15T07:29:52.403Z,23.86
2023-05-15T07:30:52.351Z,23.87
2023-05-15T07:31:52.384Z,23.87
2023-05-15T07:32:52.395Z,23.88
2023-05-15T07:33:52.344Z,23.88
2023-05-15T07:34:52.336Z,23.88
2023-05-15T07:35:52.335Z,23.89
2023-05-15T07:36:52.327Z,23.89
2023-05-15T07:37:52.451Z,23.90
2023-05-15T07:38:52.422Z,23.92
2023-05-15T07:39:52.513Z,23.93
2023-05-15T07:40:52.562Z,23.96
2023-05-15T07:41:52.636Z,23.96
2023-05-15T07:42:52.696Z,23.98
2023-05-15T07:43:52.800Z,23.99
2023-05-15T07:44:52.888Z,24.00
2023-05-15T07:45:52.997Z,24.00
2023-05-15T07:46:52.928Z,24.00
2023-05-15T07:47:53.061Z,23.99
2023-05-15T07:48:53.084Z,23.98
2023-05-15T07:49:53.092Z,23.98
2023-05-15T07:50:53.114Z,24.00
2023-05-15T07:51:53.188Z,24.02
2023-05-15T07:52:53.209Z,24.04
2023-05-15T07:53:53.311Z,24.07
2023-05-15T07:54:53.333Z,24.09
2023-05-15T07:55:53.452Z,24.12
2023-05-15T07:56:53.473Z,24.15
2023-05-15T07:57:54.028Z,24.15
2023-05-15T07:58:53.599Z,24.17
2023-05-15T07:59:53.626Z,24.17
2023-05-15T08:00:53.689Z,24.18
2023-05-15T08:01:53.764Z,24.20
2023-05-15T08:02:53.915Z,24.21
2023-05-15T08:03:53.899Z,24.22
2023-05-15T08:04:53.886Z,24.23
2023-05-15T08:05:53.951Z,24.25
2023-05-15T08:06:54.008Z,24.26
2023-05-15T08:07:54.064Z,24.28
2023-05-15T08:08:54.043Z,24.28
2023-05-15T08:09:54.225Z,24.30
2023-05-15T08:10:54.153Z,24.30
2023-05-15T08:11:54.192Z,24.31
2023-05-15T08:12:54.270Z,24.30
2023-05-15T08:13:54.346Z,24.31
2023-05-15T08:14:54.390Z,24.33
2023-05-15T08:15:54.438Z,24.34
2023-05-15T08:16:54.459Z,24.33
2023-05-15T08:17:54.713Z,24.33
2023-05-15T08:18:54.677Z,24.35
2023-05-15T08:19:54.625Z,24.34
2023-05-15T08:20:54.677Z,24.36
2023-05-15T08:21:54.751Z,24.36
2023-05-15T08:22:54.755Z,24.37
2023-05-15T08:23:54.833Z,24.36
2023-05-15T08:24:54.853Z,24.36
2023-05-15T08:25:54.920Z,24.35
2023-05-15T08:26:54.952Z,24.28
2023-05-15T08:27:55.421Z,24.25
2023-05-15T08:28:55.071Z,24.22
2023-05-15T08:29:55.155Z,24.19
2023-05-15T08:30:55.247Z,24.16
2023-05-15T08:31:55.259Z,24.12
2023-05-15T08:32:55.516Z,24.10
2023-05-15T08:33:55.382Z,24.06
2023-05-15T08:34:55.446Z,24.04
2023-05-15T08:35:55.559Z,24.01
2023-05-15T08:36:55.542Z,23.98
2023-05-15T08:37:55.611Z,23.96
2023-05-15T08:38:55.661Z,23.94
2023-05-15T08:39:55.722Z,23.92
2023-05-15T08:40:55.816Z,23.89
2023-05-15T08:41:55.796Z,23.86
2023-05-15T08:42:55.952Z,23.83
2023-05-15T08:43:55.784Z,23.81
2023-05-15T08:44:55.798Z,23.83
2023-05-15T08:45:55.790Z,23.85
2023-05-15T08:46:55.846Z,23.87
2023-05-15T08:47:55.840Z,23.89
2023-05-15T08:48:55.808Z,23.92
2023-05-15T08:49:55.789Z,23.93
2023-05-15T08:50:55.793Z,23.94
2023-05-15T08:51:55.816Z,23.95
2023-05-15T08:52:55.821Z,23.96
2023-05-15T08:53:55.820Z,23.97
2023-05-15T08:54:55.838Z,23.98
2023-05-15T08:55:55.885Z,23.98
2023-05-15T08:56:55.919Z,23.99
2023-05-15T08:57:55.977Z,23.99
2023-05-15T08:58:56.030Z,23.98
2023-05-15T08:59:56.050Z,23.97
2023-05-15T09:00:56.075Z,23.96
2023-05-15T09:01:56.165Z,23.94
2023-05-15T09:02:56.204Z,23.95
2023-05-15T09:03:56.244Z,23.94
2023-05-15T09:04:56.230Z,23.85
2023-05-15T09:05:56.179Z,23.79
2023-05-15T09:06:56.222Z,23.71
2023-05-15T09:07:56.210Z,23.65
2023-05-15T09:08:56.242Z,23.58
2023-05-15T09:09:56.255Z,23.53
2023-05-15T09:10:56.352Z,23.47
2023-05-15T09:11:56.332Z,23.40
2023-05-15T09:12:56.410Z,23.42
2023-05-15T09:13:56.405Z,23.42
2023-05-15T09:14:56.440Z,23.41
2023-05-15T09:15:56.461Z,23.35
2023-05-15T09:16:56.539Z,23.33
2023-05-15T09:17:56.560Z,23.27
2023-05-15T09:18:56.708Z,23.23
2023-05-15T09:19:56.638Z,23.24
2023-05-15T09:20:56.683Z,23.25
2023-05-15T09:21:56.718Z,23.27
2023-05-15T09:22:56.752Z,23.24
2023-05-15T09:23:56.783Z,23.21
2023-05-15T09:24:56.826Z,23.22
2023-05-15T09:25:57.076Z,23.23
2023-05-15T09:26:56.877Z,23.21
2023-05-15T09:27:56.944Z,23.23
2023-05-15T09:28:57.004Z,23.19
2023-05-15T09:29:57.047Z,23.20
2023-05-15T09:30:57.106Z,23.25
2023-05-15T09:31:57.165Z,23.32
2023-05-15T09:32:57.478Z,23.38
2023-05-15T09:33:57.226Z,23.42
2023-05-15T09:34:57.261Z,23.44
2023-05-15T09:35:57.325Z,23.44
2023-05-15T09:36:57.311Z,23.44
2023-05-15T09:37:57.429Z,23.42
2023-05-15T09:38:57.315Z,23.40
2023-05-15T09:39:57.333Z,23.40
2023-05-15T09:40:57.368Z,23.39
2023-05-15T09:41:57.368Z,23.37
2023-05-15T09:42:57.426Z,23.36
2023-05-15T09:43:57.438Z,23.34
2023-05-15T09:44:57.468Z,23.33
2023-05-15T09:45:57.554Z,23.32
2023-05-15T09:46:57.597Z,23.31
2023-05-15T09:47:57.654Z,23.30
2023-05-15T09:48:57.619Z,23.30
2023-05-15T09:49:57.659Z,23.29
2023-05-15T09:50:57.686Z,23.27
2023-05-15T09:51:57.712Z,23.26
2023-05-15T09:52:57.960Z,23.25
2023-05-15T09:53:57.790Z,23.25
2023-05-15T09:54:57.902Z,23.24
2023-05-15T09:55:57.868Z,23.24
2023-05-15T09:56:57.896Z,23.23
2023-05-15T09:57:57.904Z,23.22
2023-05-15T09:58:58.009Z,23.22
2023-05-15T09:59:57.941Z,23.21
2023-05-15T10:00:57.985Z,23.21
2023-05-15T10:01:58.029Z,23.20
2023-05-15T10:02:57.974Z,23.20
2023-05-15T10:03:57.973Z,23.19
2023-05-15T10:04:58.048Z,23.21
2023-05-15T10:06:58.051Z,23.22
2023-05-15T10:07:58.085Z,23.24
2023-05-15T10:08:58.117Z,23.23
2023-05-15T10:09:58.158Z,23.24
2023-05-15T10:10:58.211Z,23.24
2023-05-15T10:11:58.306Z,23.25
2023-05-15T10:12:58.264Z,23.26
2023-05-15T10:13:58.310Z,23.27
2023-05-15T10:14:58.365Z,23.27
2023-05-15T10:15:58.429Z,23.26
2023-05-15T10:16:58.374Z,23.25
2023-05-15T10:17:58.474Z,23.25
2023-05-15T10:18:58.472Z,23.25
2023-05-15T10:19:59.091Z,23.25
2023-05-15T10:20:58.467Z,23.25
2023-05-15T10:21:58.484Z,23.25
2023-05-15T10:22:58.532Z,23.23
2023-05-15T10:23:58.492Z,23.24
2023-05-15T10:24:58.531Z,23.22
2023-05-15T10:25:58.558Z,23.15
2023-05-15T10:26:58.597Z,23.11
2023-05-15T10:27:58.998Z,23.07
2023-05-15T10:28:58.699Z,23.08
2023-05-15T10:29:58.761Z,23.12
2023-05-15T10:30:58.878Z,23.15
2023-05-15T10:31:58.934Z,23.17
2023-05-15T10:32:59.013Z,23.20
2023-05-15T10:33:58.998Z,23.22
2023-05-15T10:34:58.962Z,23.23
2023-05-15T10:35:59.041Z,23.22
2023-05-15T10:36:59.057Z,23.24
2023-05-15T10:37:59.115Z,23.25
2023-05-15T10:38:59.133Z,23.24
2023-05-15T10:39:59.168Z,23.23
2023-05-15T10:41:12.942Z,23.23
2023-05-15T10:42:00.212Z,23.23
2023-05-15T10:42:59.269Z,23.23
2023-05-15T10:43:59.223Z,23.23
2023-05-15T10:44:59.194Z,23.23
2023-05-15T10:45:59.176Z,23.21
2023-05-15T10:46:59.217Z,23.19
2023-05-15T10:47:59.266Z,23.18
2023-05-15T10:48:59.175Z,23.18
2023-05-15T10:49:59.141Z,23.16
2023-05-15T10:50:59.170Z,23.16
2023-05-15T10:51:59.135Z,23.16
2023-05-15T10:52:59.133Z,23.16
2023-05-15T10:53:59.202Z,23.13
2023-05-15T10:54:59.243Z,23.11
2023-05-15T10:55:59.365Z,23.11
2023-05-15T10:56:59.314Z,23.10
2023-05-15T10:57:59.396Z,23.08
2023-05-15T10:58:59.436Z,23.08
2023-05-15T10:59:59.501Z,23.08
2023-05-15T11:00:59.630Z,23.08
2023-05-15T11:01:59.554Z,23.08
2023-05-15T11:02:59.687Z,23.08
2023-05-15T11:03:59.681Z,23.08
2023-05-15T11:04:59.736Z,23.09
2023-05-15T11:05:59.770Z,23.08
2023-05-15T11:06:59.819Z,23.08
2023-05-15T11:07:59.861Z,23.09
2023-05-15T11:08:59.914Z,23.10
2023-05-15T11:09:59.965Z,23.09
2023-05-15T11:11:00.063Z,23.10
2023-05-15T11:12:00.150Z,23.10
2023-05-15T11:13:00.168Z,23.11
2023-05-15T11:14:00.160Z,23.10
2023-05-15T11:15:00.212Z,23.10
2023-05-15T11:16:00.331Z,23.10
2023-05-15T11:17:00.543Z,23.08
2023-05-15T11:18:00.399Z,23.07
2023-05-15T11:19:00.439Z,23.08
2023-05-15T11:20:00.522Z,23.06
2023-05-15T11:21:00.515Z,23.04
2023-05-15T11:22:00.559Z,23.04
2023-05-15T11:23:00.598Z,23.04
2023-05-15T11:24:01.021Z,23.04
2023-05-15T11:25:00.772Z,23.03
2023-05-15T11:26:00.751Z,23.03
2023-05-15T11:27:00.848Z,23.03
2023-05-15T11:28:00.883Z,23.02
2023-05-15T11:29:01.011Z,23.03
2023-05-15T11:30:01.042Z,23.02
2023-05-15T11:31:01.084Z,23.01
2023-05-15T11:32:01.105Z,23.01
2023-05-15T11:33:01.284Z,22.99
2023-05-15T11:34:01.268Z,23.00
2023-05-15T11:35:01.353Z,23.00
2023-05-15T11:36:01.348Z,22.99
2023-05-15T11:37:01.395Z,22.99
2023-05-15T11:38:01.501Z,22.99
2023-05-15T11:39:01.523Z,22.98
2023-05-15T11:40:01.585Z,22.98
2023-05-15T11:41:01.667Z,22.98
2023-05-15T11:42:01.705Z,22.97
2023-05-15T11:43:01.748Z,22.97
2023-05-15T11:44:01.804Z,22.98
2023-05-15T11:45:01.868Z,22.97
2023-05-15T11:46:02.010Z,22.96
2023-05-15T11:47:02.142Z,22.95
2023-05-15T11:48:02.127Z,22.96
2023-05-15T11:49:02.114Z,22.96
2023-05-15T11:50:02.198Z,22.96
2023-05-15T11:51:02.249Z,22.95
2023-05-15T11:52:02.302Z,22.94
2023-05-15T11:53:02.380Z,22.94
2023-05-15T11:54:02.462Z,22.95
2023-05-15T11:55:02.511Z,22.95
2023-05-15T11:56:02.545Z,22.96
2023-05-15T11:57:02.616Z,22.96
2023-05-15T11:58:02.683Z,22.96
2023-05-15T11:59:02.750Z,22.96
2023-05-15T12:00:02.796Z,22.95
2023-05-15T12:01:02.857Z,22.96
2023-05-15T12:02:02.921Z,22.95
2023-05-15T12:03:03.074Z,22.95
2023-05-15T12:04:03.173Z,22.95
2023-05-15T12:05:03.188Z,22.95
2023-05-15T12:06:03.137Z,22.95
2023-05-15T12:07:03.431Z,22.95
2023-05-15T12:08:03.242Z,22.95
2023-05-15T12:09:03.311Z,22.95
2023-05-15T12:10:03.341Z,22.95
2023-05-15T12:11:03.388Z,22.94
2023-05-15T12:12:03.419Z,22.94
2023-05-15T12:13:03.469Z,22.93
2023-05-15T12:14:03.523Z,22.93
2023-05-15T12:15:03.521Z,22.92
2023-05-15T12:16:03.667Z,22.92
2023-05-15T12:17:03.586Z,22.92
2023-05-15T12:18:03.655Z,22.92
2023-05-15T12:19:03.707Z,22.93
2023-05-15T12:20:03.708Z,22.92
2023-05-15T12:21:03.757Z,22.93
2023-05-15T12:22:03.829Z,22.94
2023-05-15T12:23:03.879Z,22.95
2023-05-15T12:24:08.204Z,22.95
2023-05-15T12:25:03.919Z,22.96
2023-05-15T12:26:03.923Z,22.96
2023-05-15T12:27:03.932Z,22.97
2023-05-15T12:28:03.920Z,22.97
2023-05-15T12:29:03.902Z,22.97
2023-05-15T12:30:03.904Z,22.97
2023-05-15T12:31:03.899Z,22.97
2023-05-15T12:32:03.934Z,22.98
2023-05-15T12:33:03.942Z,22.97
2023-05-15T12:34:03.896Z,22.96
2023-05-15T12:35:03.907Z,22.96
2023-05-15T12:36:03.848Z,22.97
2023-05-15T12:37:03.840Z,22.96
2023-05-15T12:38:03.842Z,22.96
2023-05-15T12:39:03.823Z,22.96
2023-05-15T12:40:03.872Z,22.94
2023-05-15T12:41:03.910Z,22.94
2023-05-15T12:42:03.993Z,22.94
2023-05-15T12:43:04.061Z,22.92
2023-05-15T12:44:04.103Z,22.92
2023-05-15T12:45:04.157Z,22.91
2023-05-15T12:46:04.233Z,22.92
2023-05-15T12:47:04.261Z,22.91
2023-05-15T12:48:04.359Z,22.91
2023-05-15T12:49:04.420Z,22.92
2023-05-15T12:50:04.499Z,22.91
2023-05-15T12:51:04.504Z,22.90
2023-05-15T12:52:04.556Z,22.90
2023-05-15T12:53:04.602Z,22.90
2023-05-15T12:54:04.648Z,22.90